Time;durP1;ratioP1;P1;durP2;ratioP2;P2;SDS_P1;SDS_P2;PMS_P1;PMS_P2;Temp;Humidity;BMP_temperature;BMP_pressure;BME280_temperature;BME280_humidity;BME280_pressure;Samples;Min_cycle;Max_cycle;Signal;HPM_P1;HPM_P2
2022/10/09 00:01:10;;;;;;;8.35;3.92;;;;;;;6.54;100.00;102646.56;5053828;28;20025;-78
2022/10/09 00:03:38;;;;;;;14.50;4.95;;;;;;;6.45;100.00;102655.78;5053196;28;20037;-77
2022/10/09 00:06:05;;;;;;;11.50;4.82;;;;;;;6.38;100.00;102658.75;5053178;28;20095;-77
2022/10/09 00:08:30;;;;;;;12.23;4.80;;;;;;;6.27;100.00;102652.16;5051367;28;20440;-77
2022/10/09 00:10:56;;;;;;;12.45;4.35;;;;;;;6.22;100.00;102651.47;5053287;28;20063;-77
2022/10/09 00:13:22;;;;;;;14.82;4.07;;;;;;;6.15;100.00;102656.19;5053103;28;20035;-77
2022/10/09 00:15:47;;;;;;;10.68;3.75;;;;;;;6.05;100.00;102649.56;5051786;28;20549;-77
2022/10/09 00:18:16;;;;;;;6.03;3.53;;;;;;;5.96;100.00;102652.56;5052494;28;20370;-77
2022/10/09 00:20:43;;;;;;;8.27;4.10;;;;;;;5.90;100.00;102656.31;5068694;28;20135;-79
2022/10/09 00:23:13;;;;;;;10.77;4.72;;;;;;;5.88;100.00;102650.25;5053067;28;20029;-76
2022/10/09 00:25:38;;;;;;;7.70;4.22;;;;;;;5.86;100.00;102649.44;5053189;28;20029;-76
2022/10/09 00:28:04;;;;;;;7.43;3.70;;;;;;;5.78;100.00;102646.28;5053081;28;20124;-77
2022/10/09 00:30:29;;;;;;;9.70;4.78;;;;;;;5.74;100.00;102645.53;5053351;28;20040;-78
2022/10/09 00:32:55;;;;;;;12.30;5.03;;;;;;;5.74;100.00;102653.44;5052606;28;20389;-78
2022/10/09 00:35:21;;;;;;;8.50;4.00;;;;;;;5.70;100.00;102649.22;5052783;28;20113;-78
2022/10/09 00:37:47;;;;;;;7.47;3.88;;;;;;;5.65;100.00;102645.91;5052527;28;20143;-78
2022/10/09 00:40:13;;;;;;;10.93;4.65;;;;;;;5.61;100.00;102645.19;5052501;28;20033;-77
2022/10/09 00:42:39;;;;;;;7.65;3.97;;;;;;;5.56;100.00;102641.84;5050957;28;20029;-78
2022/10/09 00:45:05;;;;;;;12.95;6.78;;;;;;;5.51;100.00;102641.19;5052075;28;20094;-78
2022/10/09 00:47:37;;;;;;;8.85;4.95;;;;;;;5.47;100.00;102642.25;5052487;28;20033;-78
2022/10/09 00:50:16;;;;;;;8.57;5.13;;;;;;;5.41;100.00;102647.75;5052677;28;20025;-79
2022/10/09 00:52:42;;;;;;;7.45;4.30;;;;;;;5.37;100.00;102644.38;5053190;28;20052;-76
2022/10/09 00:55:11;;;;;;;8.75;4.50;;;;;;;5.42;100.00;102644.19;5052629;28;20033;-76
2022/10/09 00:57:37;;;;;;;14.25;4.88;;;;;;;5.44;100.00;102645.00;5052769;28;20029;-79
2022/10/09 01:00:06;;;;;;;9.80;4.28;;;;;;;5.46;100.00;102644.03;5053049;28;20039;-80
2022/10/09 01:02:32;;;;;;;7.53;4.10;;;;;;;5.45;100.00;102634.38;5051349;28;20033;-77
2022/10/09 01:04:57;;;;;;;6.07;4.18;;;;;;;5.43;100.00;102638.00;5055710;28;20381;-78
2022/10/09 01:07:43;;;;;;;7.68;3.90;;;;;;;5.36;100.00;102640.03;5056401;28;20527;-78
2022/10/09 01:10:24;;;;;;;12.77;4.50;;;;;;;5.31;100.00;102634.06;5054962;28;20472;-78
2022/10/09 01:13:01;;;;;;;7.13;4.20;;;;;;;5.27;100.00;102628.06;5056450;28;20162;-79
2022/10/09 01:15:32;;;;;;;13.18;4.97;;;;;;;5.27;100.00;102630.69;5056661;28;20454;-78
2022/10/09 01:18:15;;;;;;;12.43;4.53;;;;;;;5.32;100.00;102633.16;5056204;28;20029;-78
2022/10/09 01:20:53;;;;;;;13.45;5.57;;;;;;;5.48;100.00;102633.41;5071787;28;20033;-76
2022/10/09 01:23:47;;;;;;;12.57;3.90;;;;;;;5.68;100.00;102637.00;5056160;28;20031;-76
2022/10/09 01:26:35;;;;;;;13.88;4.45;;;;;;;5.80;100.00;102632.06;5056268;28;20082;-76
2022/10/09 01:29:05;;;;;;;9.23;3.65;;;;;;;5.95;100.00;102624.41;5072090;28;20063;-76
2022/10/09 01:31:34;;;;;;;14.00;4.38;;;;;;;6.02;100.00;102622.41;5056035;28;20108;-76
2022/10/09 01:34:00;;;;;;;9.45;3.63;;;;;;;6.03;100.00;102617.06;5055705;28;20033;-76
2022/10/09 01:36:29;;;;;;;15.05;4.45;;;;;;;6.05;100.00;102623.13;5055891;28;20062;-77
2022/10/09 01:38:59;;;;;;;14.35;4.47;;;;;;;6.07;100.00;102618.63;5054601;28;20056;-77
2022/10/09 01:41:25;;;;;;;9.45;3.72;;;;;;;6.07;100.00;102617.78;5054739;28;20032;-77
2022/10/09 01:43:50;;;;;;;12.55;3.70;;;;;;;6.05;100.00;102615.22;5071144;28;20416;-78
2022/10/09 01:46:29;;;;;;;7.13;3.47;;;;;;;6.04;100.00;102602.91;5055687;28;20033;-78
2022/10/09 01:49:22;;;;;;;8.07;3.72;;;;;;;6.04;100.00;102605.56;5055415;28;20039;-78
2022/10/09 01:51:59;;;;;;;10.65;3.63;;;;;;;6.03;100.00;102601.22;5071391;28;20056;-77
2022/10/09 01:54:42;;;;;;;9.63;3.13;;;;;;;5.99;100.00;102605.75;5055514;28;20090;-76
2022/10/09 01:57:11;;;;;;;17.25;4.28;;;;;;;5.98;100.00;102604.03;5055861;28;20029;-77
2022/10/09 01:59:40;;;;;;;12.10;3.47;;;;;;;5.97;100.00;102591.75;5055603;28;20033;-77
2022/10/09 02:02:07;;;;;;;8.88;3.40;;;;;;;5.97;100.00;102594.41;5055651;28;20071;-77
2022/10/09 02:04:35;;;;;;;8.18;3.08;;;;;;;5.95;100.00;102598.00;5055603;28;20029;-77
2022/10/09 02:07:01;;;;;;;7.78;3.25;;;;;;;5.89;100.00;102596.47;5055110;28;20044;-77
2022/10/09 02:09:28;;;;;;;15.32;3.70;;;;;;;5.86;100.00;102593.97;5055305;28;20036;-77
2022/10/09 02:11:58;;;;;;;14.38;4.20;;;;;;;5.82;100.00;102592.38;5070688;28;20043;-76
2022/10/09 02:14:24;;;;;;;10.10;3.33;;;;;;;5.79;100.00;102593.38;5055079;28;20047;-78
2022/10/09 02:17:05;;;;;;;8.80;3.50;;;;;;;5.78;100.00;102591.66;5055262;28;20145;-79
2022/10/09 02:19:42;;;;;;;9.73;3.10;;;;;;;5.73;100.00;102580.44;5055473;28;20374;-78
2022/10/09 02:22:13;;;;;;;8.48;3.47;;;;;;;5.69;100.00;102573.56;5054116;28;20488;-78
2022/10/09 02:24:41;;;;;;;6.13;3.47;;;;;;;5.66;100.00;102581.63;5055450;28;20039;-79
2022/10/09 02:27:07;;;;;;;6.40;3.03;;;;;;;5.60;100.00;102577.44;5054598;28;20059;-78
2022/10/09 02:29:32;;;;;;;6.10;3.10;;;;;;;5.57;100.00;102576.69;5070339;28;20037;-78
2022/10/09 02:31:58;;;;;;;13.13;4.47;;;;;;;5.53;100.00;102578.63;5054945;28;20029;-77
2022/10/09 02:34:24;;;;;;;14.48;3.90;;;;;;;5.55;100.00;102578.56;5070131;28;20029;-77
2022/10/09 02:36:49;;;;;;;6.75;3.65;;;;;;;5.56;100.00;102575.84;5070185;28;20036;-77
2022/10/09 02:39:15;;;;;;;11.93;3.80;;;;;;;5.57;100.00;102574.06;5054937;28;20029;-76
2022/10/09 02:41:40;;;;;;;7.05;3.45;;;;;;;5.58;100.00;102575.78;5054589;28;20025;-83
2022/10/09 02:44:06;;;;;;;7.15;3.55;;;;;;;5.56;100.00;102567.91;5054855;28;20039;-82
2022/10/09 02:46:32;;;;;;;11.13;3.83;;;;;;;5.53;100.00;102565.41;5055198;28;20033;-82
2022/10/09 02:48:57;;;;;;;6.72;2.90;;;;;;;5.45;100.00;102563.09;5054237;28;20469;-82
2022/10/09 02:51:23;;;;;;;10.95;3.75;;;;;;;5.40;100.00;102567.69;5069799;28;20154;-82
2022/10/09 02:53:51;;;;;;;7.45;3.47;;;;;;;5.40;100.00;102562.41;5054581;28;20428;-82
2022/10/09 02:56:17;;;;;;;10.50;3.65;;;;;;;5.40;100.00;102562.41;5054302;28;20025;-82
2022/10/09 02:58:42;;;;;;;8.98;3.80;;;;;;;5.38;100.00;102568.69;5054672;28;20039;-82
2022/10/09 03:01:07;;;;;;;8.07;2.95;;;;;;;5.37;100.00;102562.53;5054352;28;20033;-82
2022/10/09 03:03:33;;;;;;;8.98;3.30;;;;;;;5.35;100.00;102559.13;5053949;28;20138;-82
2022/10/09 03:06:10;;;;;;;9.80;3.63;;;;;;;5.32;100.00;102556.59;5054155;28;20161;-82
2022/10/09 03:08:36;;;;;;;14.25;4.00;;;;;;;5.32;100.00;102555.75;5054245;28;20041;-81
2022/10/09 03:11:02;;;;;;;9.32;3.38;;;;;;;5.29;100.00;102551.44;5052867;28;20044;-81
2022/10/09 03:13:27;;;;;;;9.20;3.25;;;;;;;5.22;100.00;102553.47;5053895;28;20025;-81
2022/10/09 03:15:52;;;;;;;5.18;3.08;;;;;;;5.19;100.00;102544.81;5054276;28;20040;-80
2022/10/09 03:18:18;;;;;;;5.85;2.90;;;;;;;5.16;100.00;102544.94;5052253;28;20091;-81
2022/10/09 03:20:44;;;;;;;8.57;3.08;;;;;;;5.11;100.00;102548.63;5053897;28;20473;-81
2022/10/09 03:23:10;;;;;;;5.13;2.78;;;;;;;5.10;100.00;102544.25;5052315;28;20041;-81
2022/10/09 03:25:35;;;;;;;8.40;4.03;;;;;;;5.10;100.00;102552.19;5053812;28;20056;-80
2022/10/09 03:28:01;;;;;;;12.57;3.58;;;;;;;5.11;100.00;102558.34;5053597;28;20033;-81
2022/10/09 03:30:26;;;;;;;13.82;4.13;;;;;;;5.24;100.00;102549.00;5053787;28;20029;-82
2022/10/09 03:32:51;;;;;;;14.30;4.28;;;;;;;5.32;100.00;102543.41;5053320;28;20033;-81
2022/10/09 03:35:17;;;;;;;14.88;4.75;;;;;;;5.38;100.00;102545.78;5053630;28;20115;-80
2022/10/09 03:37:42;;;;;;;16.45;4.72;;;;;;;5.43;100.00;102553.50;5053612;28;20102;-80
2022/10/09 03:40:08;;;;;;;14.48;4.40;;;;;;;5.46;100.00;102548.09;5054167;28;20037;-82
2022/10/09 03:42:34;;;;;;;12.90;4.53;;;;;;;5.51;100.00;102543.50;5053070;28;20025;-82
2022/10/09 03:45:03;;;;;;;9.07;3.15;;;;;;;5.50;100.00;102549.69;5053691;28;20033;-81
2022/10/09 03:47:28;;;;;;;10.52;3.78;;;;;;;5.46;100.00;102550.75;5052390;28;20029;-82
2022/10/09 03:49:54;;;;;;;11.27;3.78;;;;;;;5.40;100.00;102545.72;5053400;28;20083;-81
2022/10/09 03:52:19;;;;;;;8.48;3.40;;;;;;;5.35;100.00;102539.78;5054178;28;20029;-81
2022/10/09 03:54:44;;;;;;;12.50;4.20;;;;;;;5.35;100.00;102540.63;5055481;28;20112;-81
2022/10/09 03:57:10;;;;;;;12.82;4.72;;;;;;;5.39;100.00;102551.91;5056362;28;20037;-81
2022/10/09 03:59:35;;;;;;;9.73;3.67;;;;;;;5.43;100.00;102548.22;5052950;28;20044;-81
2022/10/09 04:02:00;;;;;;;15.77;4.13;;;;;;;5.42;100.00;102550.03;5052442;28;20043;-80
2022/10/09 04:04:26;;;;;;;12.50;3.75;;;;;;;5.44;100.00;102550.81;5053272;28;20040;-81
2022/10/09 04:06:51;;;;;;;11.90;3.90;;;;;;;5.45;100.00;102552.53;5052396;28;20064;-82
2022/10/09 04:09:16;;;;;;;10.35;3.92;;;;;;;5.42;100.00;102557.06;5053084;28;20068;-82
2022/10/09 04:11:42;;;;;;;8.18;3.75;;;;;;;5.39;100.00;102544.88;5068606;28;20326;-82
2022/10/09 04:14:07;;;;;;;6.30;3.33;;;;;;;5.36;100.00;102549.41;5052482;28;20390;-82
2022/10/09 04:16:32;;;;;;;5.78;3.58;;;;;;;5.29;100.00;102547.03;5051818;28;20064;-82
2022/10/09 04:18:58;;;;;;;7.35;3.50;;;;;;;5.23;100.00;102546.44;5052985;28;20158;-82
2022/10/09 04:21:23;;;;;;;7.30;3.53;;;;;;;5.14;100.00;102545.00;5068510;28;20048;-81
2022/10/09 04:23:50;;;;;;;8.43;3.50;;;;;;;5.08;100.00;102547.91;5053035;28;20387;-81
2022/10/09 04:26:15;;;;;;;4.93;3.00;;;;;;;5.00;100.00;102542.06;5052538;28;20028;-81
2022/10/09 04:28:40;;;;;;;10.40;4.10;;;;;;;4.94;100.00;102545.78;5068915;28;20067;-80
2022/10/09 04:31:06;;;;;;;10.00;3.33;;;;;;;4.87;100.00;102539.91;5052599;28;20069;-80
2022/10/09 04:33:31;;;;;;;5.53;3.05;;;;;;;4.82;100.00;102538.38;5052554;28;20037;-80
2022/10/09 04:35:57;;;;;;;5.38;3.03;;;;;;;4.79;100.00;102536.69;5052909;28;20037;-81
2022/10/09 04:38:23;;;;;;;7.80;3.20;;;;;;;4.77;100.00;102531.50;5054652;28;20151;-80
2022/10/09 04:41:00;;;;;;;9.88;3.20;;;;;;;4.76;100.00;102531.56;5056640;28;20056;-80
2022/10/09 04:43:26;;;;;;;5.88;2.72;;;;;;;4.72;100.00;102530.81;5057085;28;20036;-79
2022/10/09 04:45:52;;;;;;;4.90;3.30;;;;;;;4.68;100.00;102531.84;5057305;28;20040;-80
2022/10/09 04:48:18;;;;;;;7.75;3.50;;;;;;;4.68;100.00;102531.84;5057011;28;20116;-80
2022/10/09 04:50:43;;;;;;;5.22;3.03;;;;;;;4.63;100.00;102527.66;5056732;28;20036;-80
2022/10/09 04:53:09;;;;;;;7.75;3.10;;;;;;;4.57;100.00;102524.38;5056643;28;20377;-80
2022/10/09 04:55:39;;;;;;;5.53;3.05;;;;;;;4.49;100.00;102515.03;5057088;28;20025;-80
2022/10/09 04:58:04;;;;;;;9.35;4.05;;;;;;;4.49;100.00;102523.78;5057273;28;20037;-79
2022/10/09 05:00:30;;;;;;;8.25;3.67;;;;;;;4.46;100.00;102523.91;5056591;28;20366;-81
2022/10/09 05:02:55;;;;;;;3.97;3.22;;;;;;;4.41;100.00;102524.09;5057010;28;20114;-79
2022/10/09 05:05:21;;;;;;;5.68;3.20;;;;;;;4.36;100.00;102523.41;5055294;28;20033;-81
2022/10/09 05:07:46;;;;;;;10.18;3.53;;;;;;;4.33;100.00;102525.28;5057157;28;20479;-80
2022/10/09 05:10:11;;;;;;;7.00;4.47;;;;;;;4.32;100.00;102526.22;5071734;28;20128;-79
2022/10/09 05:12:37;;;;;;;6.35;3.47;;;;;;;4.39;100.00;102530.34;5056148;28;20522;-83
2022/10/09 05:15:03;;;;;;;10.38;4.03;;;;;;;4.41;100.00;102524.09;5056455;28;20116;-79
2022/10/09 05:17:29;;;;;;;8.57;3.63;;;;;;;4.45;100.00;102523.97;5055771;28;20452;-79
2022/10/09 05:19:54;;;;;;;8.25;3.58;;;;;;;4.44;100.00;102523.13;5071672;28;20068;-79
2022/10/09 05:22:19;;;;;;;7.57;3.20;;;;;;;4.44;100.00;102520.47;5056149;28;20381;-80
2022/10/09 05:24:45;;;;;;;7.65;3.22;;;;;;;4.44;100.00;102519.63;5055421;28;20056;-80
2022/10/09 05:27:10;;;;;;;12.32;3.92;;;;;;;4.44;100.00;102520.47;5056101;28;20079;-80
2022/10/09 05:29:35;;;;;;;11.10;4.30;;;;;;;4.45;100.00;102521.31;5056098;28;20028;-80
2022/10/09 05:32:01;;;;;;;10.55;4.10;;;;;;;4.47;100.00;102523.00;5056663;28;20132;-80
2022/10/09 05:34:26;;;;;;;10.02;4.15;;;;;;;4.51;100.00;102523.72;5071195;28;20586;-80
2022/10/09 05:36:51;;;;;;;8.18;3.65;;;;;;;4.54;100.00;102521.84;5056352;28;20033;-80
2022/10/09 05:39:17;;;;;;;12.77;5.10;;;;;;;4.57;100.00;102523.53;5056052;28;20033;-80
2022/10/09 05:41:42;;;;;;;9.68;4.47;;;;;;;4.64;100.00;102526.75;5055752;28;20029;-81
2022/10/09 05:44:07;;;;;;;7.30;4.10;;;;;;;4.67;100.00;102524.00;5055765;28;20028;-80
2022/10/09 05:46:33;;;;;;;13.48;5.45;;;;;;;4.67;100.00;102529.28;5055789;28;20040;-81
2022/10/09 05:49:04;;;;;;;12.75;4.60;;;;;;;4.64;100.00;102529.41;5055267;28;20038;-81
2022/10/09 05:51:31;;;;;;;14.65;4.85;;;;;;;4.67;100.00;102521.38;5055867;28;20376;-80
2022/10/09 05:53:57;;;;;;;14.38;5.20;;;;;;;4.73;100.00;102527.28;5055522;28;20120;-80
2022/10/09 05:56:29;;;;;;;14.88;5.05;;;;;;;4.80;100.00;102527.03;5057452;28;20040;-80
2022/10/09 05:58:59;;;;;;;13.07;5.00;;;;;;;4.82;100.00;102530.47;5056368;28;20041;-81
2022/10/09 06:01:30;;;;;;;12.68;4.40;;;;;;;4.78;100.00;102524.47;5054423;28;20041;-80
2022/10/09 06:03:58;;;;;;;10.15;4.70;;;;;;;4.77;100.00;102530.66;5055916;28;20079;-83
2022/10/09 06:06:27;;;;;;;11.05;4.97;;;;;;;4.79;100.00;102522.66;5054949;28;20469;-80
2022/10/09 06:08:53;;;;;;;14.93;5.05;;;;;;;4.82;100.00;102523.44;5055512;28;20043;-81
2022/10/09 06:11:23;;;;;;;11.90;4.45;;;;;;;4.82;100.00;102525.19;5054964;28;20057;-80
2022/10/09 06:13:49;;;;;;;10.35;4.35;;;;;;;4.80;100.00;102525.25;5054805;28;20036;-82
2022/10/09 06:16:16;;;;;;;9.68;4.68;;;;;;;4.76;100.00;102519.25;5054989;28;20507;-81
2022/10/09 06:18:45;;;;;;;9.00;4.35;;;;;;;4.72;100.00;102515.00;5055086;28;20033;-81
2022/10/09 06:21:10;;;;;;;7.93;4.03;;;;;;;4.69;100.00;102524.81;5055183;28;20112;-80
2022/10/09 06:23:36;;;;;;;8.85;3.70;;;;;;;4.66;100.00;102525.78;5055198;28;20385;-81
2022/10/09 06:26:04;;;;;;;12.95;3.85;;;;;;;4.66;100.00;102515.25;5054556;28;20040;-80
2022/10/09 06:28:31;;;;;;;9.73;4.30;;;;;;;4.64;100.00;102517.06;5054957;28;20056;-81
2022/10/09 06:31:08;;;;;;;6.60;3.70;;;;;;;4.65;100.00;102513.53;5055297;28;20116;-81
2022/10/09 06:33:36;;;;;;;7.38;4.10;;;;;;;4.67;100.00;102518.72;5054992;28;20024;-80
2022/10/09 06:36:03;;;;;;;8.95;3.85;;;;;;;4.70;100.00;102526.53;5054199;28;20420;-80
2022/10/09 06:38:29;;;;;;;10.73;4.43;;;;;;;4.69;100.00;102524.81;5055124;28;20044;-80
2022/10/09 06:40:59;;;;;;;11.85;4.72;;;;;;;4.67;100.00;102530.16;5053644;28;20430;-80
2022/10/09 06:43:25;;;;;;;14.02;5.60;;;;;;;4.71;100.00;102526.47;5054428;28;20193;-80
2022/10/09 06:45:50;;;;;;;8.65;4.32;;;;;;;4.72;100.00;102525.56;5054363;28;20234;-81
2022/10/09 06:48:15;;;;;;;13.57;4.45;;;;;;;4.74;100.00;102528.13;5054578;28;20346;-79
2022/10/09 06:50:41;;;;;;;12.77;5.30;;;;;;;4.77;100.00;102534.13;5055220;28;20350;-79
2022/10/09 06:53:06;;;;;;;11.85;5.03;;;;;;;4.82;100.00;102526.06;5055095;28;20369;-81
2022/10/09 06:55:32;;;;;;;13.35;5.13;;;;;;;4.89;100.00;102527.50;5052746;28;20500;-78
2022/10/09 06:57:58;;;;;;;9.65;4.47;;;;;;;4.96;100.00;102533.41;5054147;28;20075;-78
2022/10/09 07:00:23;;;;;;;10.77;4.13;;;;;;;5.03;100.00;102526.09;5053592;28;20120;-81
2022/10/09 07:02:49;;;;;;;8.60;4.25;;;;;;;5.09;100.00;102531.13;5053960;28;20532;-80
2022/10/09 07:05:15;;;;;;;7.47;3.58;;;;;;;5.15;100.00;102524.75;5054679;28;20044;-77
2022/10/09 07:07:40;;;;;;;12.38;5.65;;;;;;;5.24;100.00;102527.00;5054435;28;20436;-82
2022/10/09 07:10:07;;;;;;;14.00;6.07;;;;;;;5.35;100.00;102522.16;5054152;28;20028;-81
2022/10/09 07:12:36;;;;;;;12.90;5.45;;;;;;;5.41;100.00;102528.97;5053857;28;20029;-79
2022/10/09 07:15:04;;;;;;;15.60;5.95;;;;;;;5.48;100.00;102530.44;5053931;28;20061;-80
2022/10/09 07:17:29;;;;;;;18.60;6.47;;;;;;;5.53;100.00;102524.97;5054556;28;20037;-82
2022/10/09 07:19:55;;;;;;;19.08;8.32;;;;;;;5.60;100.00;102526.41;5053992;28;20362;-78
2022/10/09 07:22:20;;;;;;;16.13;7.35;;;;;;;5.67;100.00;102527.00;5053443;28;20121;-79
2022/10/09 07:24:46;;;;;;;17.83;8.75;;;;;;;5.75;100.00;102528.38;5053363;28;20033;-76
2022/10/09 07:27:11;;;;;;;26.63;9.73;;;;;;;5.89;100.00;102525.13;5052359;28;20033;-82
2022/10/09 07:29:37;;;;;;;20.08;10.13;;;;;;;6.00;100.00;102522.94;5053721;28;20029;-78
2022/10/09 07:32:02;;;;;;;25.08;9.05;;;;;;;6.12;100.00;102520.63;5054024;28;20458;-78
2022/10/09 07:34:28;;;;;;;19.58;9.70;;;;;;;6.19;100.00;102516.81;5052446;28;20378;-77
2022/10/09 07:36:53;;;;;;;21.23;9.15;;;;;;;6.27;100.00;102521.72;5053355;28;20037;-79
2022/10/09 07:39:18;;;;;;;20.02;9.15;;;;;;;6.40;100.00;102525.53;5053147;28;20466;-82
2022/10/09 07:41:44;;;;;;;19.63;9.52;;;;;;;6.55;100.00;102520.47;5068583;28;20095;-78
2022/10/09 07:44:10;;;;;;;21.10;9.10;;;;;;;6.64;100.00;102525.31;5053122;28;20074;-80
2022/10/09 07:46:36;;;;;;;21.63;9.65;;;;;;;6.77;100.00;102517.69;5068333;28;20033;-77
2022/10/09 07:49:03;;;;;;;17.02;9.18;;;;;;;6.89;100.00;102520.56;5052951;28;20392;-76
2022/10/09 07:51:29;;;;;;;21.10;8.88;;;;;;;6.98;100.00;102521.91;5052869;28;20032;-78
2022/10/09 07:53:56;;;;;;;22.50;8.52;;;;;;;7.05;100.00;102523.34;5053029;28;20114;-76
2022/10/09 07:56:33;;;;;;;18.48;8.55;;;;;;;7.15;100.00;102530.81;5051485;28;20462;-77
2022/10/09 07:59:01;;;;;;;16.38;8.45;;;;;;;7.25;100.00;102521.50;5053232;28;20453;-80
2022/10/09 08:01:28;;;;;;;20.70;8.30;;;;;;;7.36;100.00;102524.47;5053161;28;20426;-77
2022/10/09 08:03:54;;;;;;;22.23;7.80;;;;;;;7.50;100.00;102515.84;5052818;28;20056;-78
2022/10/09 08:06:20;;;;;;;11.45;6.88;;;;;;;7.66;100.00;102512.38;5053026;28;20386;-80
2022/10/09 08:08:54;;;;;;;19.10;7.70;;;;;;;7.90;100.00;102519.06;5052936;28;20174;-77
2022/10/09 08:11:22;;;;;;;24.05;7.88;;;;;;;8.08;100.00;102519.03;5052660;28;20029;-77
2022/10/09 08:13:48;;;;;;;16.70;5.88;;;;;;;8.27;100.00;102518.91;5052325;28;20029;-77
2022/10/09 08:16:15;;;;;;;16.15;5.70;;;;;;;8.42;100.00;102519.84;5052869;28;20033;-79
2022/10/09 08:18:41;;;;;;;14.38;5.68;;;;;;;8.59;100.00;102519.81;5052213;28;20053;-78
2022/10/09 08:21:12;;;;;;;12.15;5.55;;;;;;;8.88;100.00;102516.47;5051201;28;20374;-80
2022/10/09 08:23:37;;;;;;;14.35;4.78;;;;;;;9.31;100.00;102514.00;5052433;28;20035;-80
2022/10/09 08:26:04;;;;;;;17.35;5.65;;;;;;;9.60;100.00;102514.06;5052361;28;20381;-80
2022/10/09 08:28:29;;;;;;;12.10;5.05;;;;;;;9.86;100.00;102508.03;5052680;28;20086;-80
2022/10/09 08:30:55;;;;;;;12.43;4.93;;;;;;;10.23;100.00;102503.09;5052734;28;20037;-85
2022/10/09 08:33:23;;;;;;;19.77;6.35;;;;;;;10.57;100.00;102502.81;5051380;28;20346;-82
2022/10/09 08:35:49;;;;;;;16.58;5.05;;;;;;;11.10;100.00;102497.59;5052716;28;20025;-77
2022/10/09 08:38:15;;;;;;;12.52;4.45;;;;;;;11.77;100.00;102501.97;5052386;28;20095;-78
2022/10/09 08:41:01;;;;;;;12.43;4.45;;;;;;;13.01;100.00;102494.03;5052250;28;20453;-77
2022/10/09 08:43:34;;;;;;;13.73;4.30;;;;;;;14.20;99.01;102492.94;5052597;28;20029;-78
2022/10/09 08:46:05;;;;;;;14.23;4.15;;;;;;;15.60;89.58;102483.22;5052809;28;20058;-76
2022/10/09 08:48:38;;;;;;;11.40;3.53;;;;;;;16.93;78.60;102488.50;5051833;28;20404;-76
2022/10/09 08:51:08;;;;;;;13.68;3.92;;;;;;;18.18;67.75;102476.75;5052466;28;20033;-77
2022/10/09 08:53:43;;;;;;;12.50;3.85;;;;;;;19.15;62.31;102474.41;5051932;28;20036;-76
2022/10/09 08:56:13;;;;;;;8.65;3.20;;;;;;;19.38;58.41;102478.31;5052409;28;20033;-75
2022/10/09 08:58:42;;;;;;;10.80;3.15;;;;;;;19.72;55.17;102477.50;5053135;28;20036;-78
2022/10/09 09:01:30;;;;;;;12.85;3.47;;;;;;;19.65;54.71;102478.31;5052189;28;20468;-76
2022/10/09 09:04:14;;;;;;;12.38;3.38;;;;;;;19.74;55.01;102466.56;5052064;28;20083;-75
2022/10/09 09:06:48;;;;;;;11.30;3.50;;;;;;;19.79;54.17;102460.69;5052196;28;20114;-76
2022/10/09 09:09:49;;;;;;;11.57;3.40;;;;;;;19.29;53.55;102457.66;5067359;28;20049;-78
2022/10/09 09:12:21;;;;;;;9.85;3.00;;;;;;;19.45;54.88;102450.69;5040702;28;20045;-69
2022/10/09 09:14:59;;;;;;;13.60;3.20;;;;;;;19.85;55.30;102457.34;5052473;28;20031;-69
2022/10/09 09:17:48;;;;;;;12.93;3.38;;;;;;;19.45;51.42;102448.84;5051740;28;20041;-69
2022/10/09 09:20:41;;;;;;;10.98;3.00;;;;;;;19.11;51.79;102448.75;5052104;28;20112;-68
2022/10/09 09:23:12;;;;;;;13.63;3.83;;;;;;;19.29;53.30;102446.88;5052434;28;20037;-70
2022/10/09 09:25:40;;;;;;;14.98;3.13;;;;;;;19.40;52.43;102439.53;5055089;28;20123;-68
2022/10/09 09:28:16;;;;;;;11.90;3.08;;;;;;;19.72;51.23;102449.66;5054161;28;20369;-68
2022/10/09 09:30:49;;;;;;;8.25;2.80;;;;;;;19.55;51.12;102436.06;5055382;28;20051;-68
2022/10/09 09:33:21;;;;;;;9.82;2.92;;;;;;;19.88;48.84;102436.28;5055352;28;20033;-68
2022/10/09 09:36:07;;;;;;;12.88;3.22;;;;;;;20.82;48.05;102435.34;5055936;28;20025;-68
2022/10/09 09:38:34;;;;;;;10.27;2.85;;;;;;;21.22;46.69;102436.34;5055279;28;20141;-69
2022/10/09 09:40:59;;;;;;;9.60;3.38;;;;;;;21.22;46.51;102430.94;5055594;28;20025;-69
2022/10/09 09:43:25;;;;;;;11.13;3.08;;;;;;;20.51;46.96;102431.41;5055186;28;20028;-70
2022/10/09 09:45:56;;;;;;;8.15;2.67;;;;;;;20.46;47.48;102427.50;5055227;28;20044;-68
2022/10/09 09:48:34;;;;;;;7.63;2.63;;;;;;;20.84;46.84;102428.75;5055166;28;20120;-67
2022/10/09 09:51:02;;;;;;;10.45;2.88;;;;;;;20.98;44.63;102419.13;5055077;28;20044;-68
2022/10/09 09:53:41;;;;;;;8.68;2.60;;;;;;;21.29;44.08;102421.94;5055063;28;20032;-68
2022/10/09 09:56:07;;;;;;;8.82;2.58;;;;;;;21.72;43.25;102412.72;5055519;28;20036;-68
2022/10/09 09:58:50;;;;;;;14.48;2.92;;;;;;;21.41;44.27;102411.59;5055071;28;20036;-68
2022/10/09 10:01:22;;;;;;;10.02;3.08;;;;;;;21.54;44.09;102421.06;5055402;28;20033;-68
2022/10/09 10:03:50;;;;;;;7.82;2.50;;;;;;;21.19;42.86;102398.81;5054821;28;20032;-69
2022/10/09 10:06:24;;;;;;;7.20;2.20;;;;;;;19.75;45.16;102398.03;5052911;28;20060;-68
2022/10/09 10:09:01;;;;;;;8.20;2.50;;;;;;;18.83;47.53;102401.13;5054977;28;20025;-68
2022/10/09 10:11:27;;;;;;;8.50;2.55;;;;;;;18.21;51.79;102392.94;5055088;28;20039;-68
2022/10/09 10:13:53;;;;;;;8.52;2.63;;;;;;;17.36;55.23;102392.19;5054286;28;20033;-68
2022/10/09 10:16:27;;;;;;;7.63;2.72;;;;;;;16.91;57.67;102391.88;5054156;28;20462;-67
2022/10/09 10:18:55;;;;;;;6.65;2.30;;;;;;;16.29;58.88;102387.72;5054324;28;20106;-69
2022/10/09 10:21:21;;;;;;;8.75;2.15;;;;;;;16.41;61.49;102386.59;5054694;28;20029;-68
2022/10/09 10:23:55;;;;;;;10.10;2.20;;;;;;;16.65;60.01;102383.50;5054178;28;20505;-69
2022/10/09 10:26:30;;;;;;;7.63;2.33;;;;;;;16.62;55.88;102389.16;5054688;28;20501;-69
2022/10/09 10:29:17;;;;;;;6.25;2.03;;;;;;;16.49;58.65;102376.00;5054740;28;20079;-69
2022/10/09 10:32:02;;;;;;;9.40;2.20;;;;;;;16.43;59.09;102375.72;5054462;28;20104;-67
2022/10/09 10:34:34;;;;;;;4.57;1.75;;;;;;;16.43;59.02;102379.25;5053898;28;20124;-68
2022/10/09 10:37:12;;;;;;;8.15;2.00;;;;;;;16.26;61.12;102369.19;5052441;28;20029;-69
2022/10/09 10:39:48;;;;;;;5.38;1.58;;;;;;;15.65;58.08;102365.63;5070071;28;20086;-69
2022/10/09 10:42:55;;;;;;;9.13;2.13;;;;;;;15.47;60.56;102360.03;5054546;28;20025;-69
2022/10/09 10:45:37;;;;;;;7.32;1.80;;;;;;;15.14;63.86;102362.84;5053777;28;20364;-73
2022/10/09 10:48:08;;;;;;;6.53;1.73;;;;;;;14.92;64.33;102352.25;5054995;28;20041;-71
2022/10/09 10:50:42;;;;;;;4.45;1.73;;;;;;;14.83;66.59;102343.16;5054323;28;20033;-70
2022/10/09 10:53:40;;;;;;;7.72;1.80;;;;;;;14.68;70.12;102347.16;5054669;28;20056;-69
2022/10/09 10:56:14;;;;;;;9.35;1.75;;;;;;;14.56;68.00;102340.97;5054646;28;20029;-74
2022/10/09 10:58:58;;;;;;;7.63;1.90;;;;;;;14.51;71.29;102340.47;5054115;28;20029;-71
2022/10/09 11:01:49;;;;;;;9.82;2.50;;;;;;;14.46;71.50;102328.34;5054558;28;20032;-71
2022/10/09 11:04:33;;;;;;;;;;;;;;;14.48;70.64;102330.03;5055002;28;20051;-71
2022/10/09 11:07:20;;;;;;;7.28;2.10;;;;;;;14.40;68.63;102315.44;5053707;28;19923;-72
2022/10/09 11:10:14;;;;;;;8.75;2.03;;;;;;;14.45;71.98;102323.97;5053518;28;20041;-74
2022/10/09 11:13:02;;;;;;;4.53;1.75;;;;;;;14.43;68.69;102306.31;5054053;28;20033;-73
2022/10/09 11:15:29;;;;;;;5.80;1.80;;;;;;;14.50;70.03;102302.16;5053535;28;20025;-71
2022/10/09 11:18:01;;;;;;;4.82;1.83;;;;;;;14.54;69.85;102298.25;5053818;28;20067;-70
2022/10/09 11:20:48;;;;;;;;;;;;;;;14.53;68.68;102296.53;5053998;28;20025;-71
2022/10/09 11:23:37;;;;;;;5.10;1.60;;;;;;;14.57;69.26;102295.31;5054044;28;19948;-70
2022/10/09 11:26:29;;;;;;;9.02;1.90;;;;;;;14.54;62.72;102290.22;5053243;28;20089;-70
2022/10/09 11:29:28;;;;;;;11.57;2.10;;;;;;;14.56;65.10;102282.88;5045336;28;20049;-72
2022/10/09 11:32:16;;;;;;;7.10;1.85;;;;;;;14.58;64.45;102285.44;5049005;28;20098;-67
2022/10/09 11:35:00;;;;;;;7.40;2.00;;;;;;;14.66;62.52;102269.59;5024189;28;20102;-72